Flugplatz Gunzenhausen-Reutberg (EDMH)

Hier findest Du alle Informationen zum Flugplatz Gunzenhausen-Reutberg (EDMH).

Informationen für Piloten zum Flugplatz Gunzenhausen-Reutberg

Hier findest Du alle relevanten Informationen, die Du als Pilot benötigst, um Gunzenhausen-Reutberg anzufliegen.

Flugplatz: Gunzenhausen-Reutberg ICAO-Code: EDMH
Frequenz Turm: 118,550 Mhz GAFOR Gebiet: 55
Frequenz Ground: 118,550 Mhz Mogas: nein
Platzrunde: SE 2300 ft Landegebühr: -
Platzhöhe: 1.591 ft Sunrise: 06:00 Uhr UTC
Pisten: 06/24 - 530 m x 15 m, ASPH Sunset: 16:58 Uhr UTC

Mitglieder, die in Gunzenhausen-Reutberg fliegen

Flugwetter am Flugplatz Gunzenhausen-Reutberg

Die METAR Information stammen aus EDDN (48.18 km entfernt).

METAR Code:
2024/02/18 12:20
EDDN 181220Z AUTO 21007KT 180V250 9999 SCT043 BKN049 13/03 Q1029 NOSIG

Flugschulen am Flugplatz Gunzenhausen-Reutberg

Am Flugplatz Gunzenhausen-Reutberg gibt es leider keine Flugschule.

Benachbarte Flugplätze und Flugschulen

Es gibt 23 weitere Flugplätze in einem Umkreis von 50 km um den Flugplatz Gunzenhausen-Reutberg.

Jetzt anmelden

Passwort vergessen

Umfrage Archiv

Wie häufig haltet Ihr die Halbkreisflugregel ein?

Eher häufig!
35 %
Immer!
32.5 %
Hin und wieder!
15.5 %
Nie!
10.2 %
Eher selten!
6.8 %
Stimmen: 206 | Diskussion
Anzeige: Roland Aircraft
Statistik Alle Mitglieder

Aktuell sind 20 Besucher online, davon 2 Mitglieder und 18 Gäste.


Mitglieder online:
der_aussiedler  Heli 

Anzeige: EasyVFR